sensor_id;sensor_type;location;lat;lon;timestamp;temperature;humidity
10453;DHT22;5274;51.992;8.518;2022-12-18T00:01:37;-6.70;99.90
10453;DHT22;5274;51.992;8.518;2022-12-18T00:04:04;-6.70;89.50
10453;DHT22;5274;51.992;8.518;2022-12-18T00:06:31;-6.80;1.00
10453;DHT22;5274;51.992;8.518;2022-12-18T00:09:00;-6.80;1.00
10453;DHT22;5274;51.992;8.518;2022-12-18T00:11:28;-6.80;1.00
10453;DHT22;5274;51.992;8.518;2022-12-18T00:13:56;-6.70;99.90
10453;DHT22;5274;51.992;8.518;2022-12-18T00:16:24;-6.80;99.90
10453;DHT22;5274;51.992;8.518;2022-12-18T00:18:52;-6.70;99.90
10453;DHT22;5274;51.992;8.518;2022-12-18T00:21:19;-6.80;99.90
10453;DHT22;5274;51.992;8.518;2022-12-18T00:23:45;-6.80;99.90
10453;DHT22;5274;51.992;8.518;2022-12-18T00:26:14;-6.80;99.90
10453;DHT22;5274;51.992;8.518;2022-12-18T00:28:40;-6.80;99.90
10453;DHT22;5274;51.992;8.518;2022-12-18T00:31:12;-6.80;99.90
10453;DHT22;5274;51.992;8.518;2022-12-18T00:33:38;-6.80;99.90
10453;DHT22;5274;51.992;8.518;2022-12-18T00:36:06;-6.80;99.90
10453;DHT22;5274;51.992;8.518;2022-12-18T00:38:33;-6.80;99.90
10453;DHT22;5274;51.992;8.518;2022-12-18T00:40:58;-6.90;99.90
10453;DHT22;5274;51.992;8.518;2022-12-18T00:43:24;-6.90;99.80
10453;DHT22;5274;51.992;8.518;2022-12-18T00:45:50;-6.80;99.90
10453;DHT22;5274;51.992;8.518;2022-12-18T00:48:15;-6.80;99.90
10453;DHT22;5274;51.992;8.518;2022-12-18T00:50:41;-6.60;99.90
10453;DHT22;5274;51.992;8.518;2022-12-18T00:53:06;-6.70;99.90
10453;DHT22;5274;51.992;8.518;2022-12-18T00:55:32;-6.70;99.90
10453;DHT22;5274;51.992;8.518;2022-12-18T00:57:58;-6.60;99.90
10453;DHT22;5274;51.992;8.518;2022-12-18T01:00:23;-6.70;99.90
10453;DHT22;5274;51.992;8.518;2022-12-18T01:02:49;-6.60;99.90
10453;DHT22;5274;51.992;8.518;2022-12-18T01:05:15;-6.60;99.90
10453;DHT22;5274;51.992;8.518;2022-12-18T01:07:41;-6.60;99.90
10453;DHT22;5274;51.992;8.518;2022-12-18T01:10:09;-6.60;99.90
10453;DHT22;5274;51.992;8.518;2022-12-18T01:12:35;-6.60;99.90
10453;DHT22;5274;51.992;8.518;2022-12-18T01:15:01;-6.60;99.90
10453;DHT22;5274;51.992;8.518;2022-12-18T01:17:26;-6.50;99.90
10453;DHT22;5274;51.992;8.518;2022-12-18T01:19:52;-6.60;97.20
10453;DHT22;5274;51.992;8.518;2022-12-18T01:22:17;-6.50;99.90
10453;DHT22;5274;51.992;8.518;2022-12-18T01:24:43;-6.40;99.90
10453;DHT22;5274;51.992;8.518;2022-12-18T01:27:08;-6.40;99.90
10453;DHT22;5274;51.992;8.518;2022-12-18T01:29:34;-6.40;93.10
10453;DHT22;5274;51.992;8.518;2022-12-18T01:31:59;-6.40;59.20
10453;DHT22;5274;51.992;8.518;2022-12-18T01:34:25;-6.30;99.90
10453;DHT22;5274;51.992;8.518;2022-12-18T01:36:51;-6.30;99.90
10453;DHT22;5274;51.992;8.518;2022-12-18T01:39:18;-6.20;46.60
10453;DHT22;5274;51.992;8.518;2022-12-18T01:41:44;-6.30;1.00
10453;DHT22;5274;51.992;8.518;2022-12-18T01:47:54;-6.20;1.00
10453;DHT22;5274;51.992;8.518;2022-12-18T01:50:41;-6.20;1.00
10453;DHT22;5274;51.992;8.518;2022-12-18T01:53:19;-6.20;1.00
10453;DHT22;5274;51.992;8.518;2022-12-18T01:55:49;-6.30;34.70
10453;DHT22;5274;51.992;8.518;2022-12-18T01:58:15;-6.20;94.10
10453;DHT22;5274;51.992;8.518;2022-12-18T02:00:41;-6.20;95.70
10453;DHT22;5274;51.992;8.518;2022-12-18T02:03:07;-6.10;99.90
10453;DHT22;5274;51.992;8.518;2022-12-18T02:05:47;-6.00;99.90
10453;DHT22;5274;51.992;8.518;2022-12-18T02:08:27;-6.00;21.60
10453;DHT22;5274;51.992;8.518;2022-12-18T02:16:19;-6.00;1.00
10453;DHT22;5274;51.992;8.518;2022-12-18T02:18:50;-5.90;38.00
10453;DHT22;5274;51.992;8.518;2022-12-18T02:21:27;-5.90;25.90
10453;DHT22;5274;51.992;8.518;2022-12-18T02:26:47;-5.90;75.50
10453;DHT22;5274;51.992;8.518;2022-12-18T02:29:21;-5.90;99.90
10453;DHT22;5274;51.992;8.518;2022-12-18T02:31:53;-5.90;99.90
10453;DHT22;5274;51.992;8.518;2022-12-18T02:34:23;-6.00;43.60
10453;DHT22;5274;51.992;8.518;2022-12-18T02:36:50;-6.00;1.00
10453;DHT22;5274;51.992;8.518;2022-12-18T02:39:17;-6.00;1.00
10453;DHT22;5274;51.992;8.518;2022-12-18T02:41:46;-6.00;55.90
10453;DHT22;5274;51.992;8.518;2022-12-18T02:44:13;-6.00;99.90
10453;DHT22;5274;51.992;8.518;2022-12-18T02:46:41;-5.90;99.90
10453;DHT22;5274;51.992;8.518;2022-12-18T02:51:50;-6.00;5.50
10453;DHT22;5274;51.992;8.518;2022-12-18T02:54:27;-6.00;66.20
10453;DHT22;5274;51.992;8.518;2022-12-18T02:57:09;-6.00;99.90
10453;DHT22;5274;51.992;8.518;2022-12-18T03:02:44;-6.00;99.90
10453;DHT22;5274;51.992;8.518;2022-12-18T03:05:22;-6.00;99.90
10453;DHT22;5274;51.992;8.518;2022-12-18T03:07:56;-6.00;99.90
10453;DHT22;5274;51.992;8.518;2022-12-18T03:10:27;-5.90;99.90
10453;DHT22;5274;51.992;8.518;2022-12-18T03:15:50;-5.90;99.90
10453;DHT22;5274;51.992;8.518;2022-12-18T03:18:24;-5.80;99.90
10453;DHT22;5274;51.992;8.518;2022-12-18T03:20:54;-5.70;99.90
10453;DHT22;5274;51.992;8.518;2022-12-18T03:23:25;-5.70;99.90
10453;DHT22;5274;51.992;8.518;2022-12-18T03:25:56;-5.70;99.90
10453;DHT22;5274;51.992;8.518;2022-12-18T03:28:23;-5.70;48.10
10453;DHT22;5274;51.992;8.518;2022-12-18T03:30:54;-5.80;1.00
10453;DHT22;5274;51.992;8.518;2022-12-18T03:33:27;-5.90;1.00
10453;DHT22;5274;51.992;8.518;2022-12-18T03:35:55;-5.80;99.90
10453;DHT22;5274;51.992;8.518;2022-12-18T03:38:20;-5.80;99.90
10453;DHT22;5274;51.992;8.518;2022-12-18T03:44:10;-5.70;99.90
10453;DHT22;5274;51.992;8.518;2022-12-18T03:49:50;-5.80;1.00
10453;DHT22;5274;51.992;8.518;2022-12-18T03:55:05;-5.80;1.00
10453;DHT22;5274;51.992;8.518;2022-12-18T03:57:32;-5.90;1.00
10453;DHT22;5274;51.992;8.518;2022-12-18T04:00:08;-5.90;1.00
10453;DHT22;5274;51.992;8.518;2022-12-18T04:02:36;-5.90;1.00
10453;DHT22;5274;51.992;8.518;2022-12-18T04:05:05;-5.80;8.40
10453;DHT22;5274;51.992;8.518;2022-12-18T04:07:32;-5.90;20.50
10453;DHT22;5274;51.992;8.518;2022-12-18T04:09:59;-5.90;22.70
10453;DHT22;5274;51.992;8.518;2022-12-18T04:12:28;-5.80;99.90
10453;DHT22;5274;51.992;8.518;2022-12-18T04:14:54;-5.70;99.90
10453;DHT22;5274;51.992;8.518;2022-12-18T04:17:20;-5.70;17.30
10453;DHT22;5274;51.992;8.518;2022-12-18T04:19:45;-5.70;1.00
10453;DHT22;5274;51.992;8.518;2022-12-18T04:22:11;-5.70;1.00
10453;DHT22;5274;51.992;8.518;2022-12-18T04:24:36;-5.70;1.00
10453;DHT22;5274;51.992;8.518;2022-12-18T04:27:02;-5.60;1.00
10453;DHT22;5274;51.992;8.518;2022-12-18T04:29:28;-5.70;1.00
10453;DHT22;5274;51.992;8.518;2022-12-18T04:31:54;-5.60;1.00
10453;DHT22;5274;51.992;8.518;2022-12-18T04:34:20;-5.60;1.00
10453;DHT22;5274;51.992;8.518;2022-12-18T04:36:46;-5.70;1.00
10453;DHT22;5274;51.992;8.518;2022-12-18T04:39:11;-5.70;1.00
10453;DHT22;5274;51.992;8.518;2022-12-18T04:41:37;-5.70;1.00
10453;DHT22;5274;51.992;8.518;2022-12-18T04:44:03;-5.70;1.00
10453;DHT22;5274;51.992;8.518;2022-12-18T04:46:28;-5.60;1.00
10453;DHT22;5274;51.992;8.518;2022-12-18T04:48:54;-5.70;1.00
10453;DHT22;5274;51.992;8.518;2022-12-18T04:51:19;-5.70;1.00
10453;DHT22;5274;51.992;8.518;2022-12-18T04:53:45;-5.60;1.00
10453;DHT22;5274;51.992;8.518;2022-12-18T04:56:13;-5.60;1.00
10453;DHT22;5274;51.992;8.518;2022-12-18T04:58:40;-5.60;1.00
10453;DHT22;5274;51.992;8.518;2022-12-18T05:01:06;-5.50;99.90
10453;DHT22;5274;51.992;8.518;2022-12-18T05:03:33;-5.60;99.90
10453;DHT22;5274;51.992;8.518;2022-12-18T05:05:59;-5.60;99.90
10453;DHT22;5274;51.992;8.518;2022-12-18T05:08:25;-5.50;99.90
10453;DHT22;5274;51.992;8.518;2022-12-18T05:11:05;-5.50;99.90
10453;DHT22;5274;51.992;8.518;2022-12-18T05:13:31;-5.50;99.90
10453;DHT22;5274;51.992;8.518;2022-12-18T05:15:58;-5.40;99.90
10453;DHT22;5274;51.992;8.518;2022-12-18T05:18:24;-5.40;67.90
10453;DHT22;5274;51.992;8.518;2022-12-18T05:20:50;-5.50;99.90
10453;DHT22;5274;51.992;8.518;2022-12-18T05:23:16;-5.50;99.90
10453;DHT22;5274;51.992;8.518;2022-12-18T05:25:42;-5.40;99.90
10453;DHT22;5274;51.992;8.518;2022-12-18T05:28:08;-5.40;99.90
10453;DHT22;5274;51.992;8.518;2022-12-18T05:30:34;-5.40;99.90
10453;DHT22;5274;51.992;8.518;2022-12-18T05:32:59;-5.40;99.90
10453;DHT22;5274;51.992;8.518;2022-12-18T05:35:25;-5.30;99.90
10453;DHT22;5274;51.992;8.518;2022-12-18T05:37:50;-5.30;99.90
10453;DHT22;5274;51.992;8.518;2022-12-18T05:40:16;-5.30;99.90
10453;DHT22;5274;51.992;8.518;2022-12-18T05:42:41;-5.30;99.90
10453;DHT22;5274;51.992;8.518;2022-12-18T05:45:07;-5.30;99.90
10453;DHT22;5274;51.992;8.518;2022-12-18T05:47:33;-5.40;99.90
10453;DHT22;5274;51.992;8.518;2022-12-18T05:49:58;-5.20;99.90
10453;DHT22;5274;51.992;8.518;2022-12-18T05:52:24;-5.10;99.90
10453;DHT22;5274;51.992;8.518;2022-12-18T05:54:49;-5.10;1.00
10453;DHT22;5274;51.992;8.518;2022-12-18T05:57:15;-5.00;1.00
10453;DHT22;5274;51.992;8.518;2022-12-18T05:59:40;-5.00;1.00
10453;DHT22;5274;51.992;8.518;2022-12-18T06:02:06;-4.90;1.00
10453;DHT22;5274;51.992;8.518;2022-12-18T06:04:32;-4.90;1.00
10453;DHT22;5274;51.992;8.518;2022-12-18T06:06:57;-4.80;1.00
10453;DHT22;5274;51.992;8.518;2022-12-18T06:09:23;-4.80;99.90
10453;DHT22;5274;51.992;8.518;2022-12-18T06:11:49;-4.90;1.00
10453;DHT22;5274;51.992;8.518;2022-12-18T06:14:16;-4.80;1.00
10453;DHT22;5274;51.992;8.518;2022-12-18T06:16:42;-4.80;99.90
10453;DHT22;5274;51.992;8.518;2022-12-18T06:19:12;-4.80;99.90
10453;DHT22;5274;51.992;8.518;2022-12-18T06:21:39;-4.80;99.90
10453;DHT22;5274;51.992;8.518;2022-12-18T06:24:05;-4.70;99.90
10453;DHT22;5274;51.992;8.518;2022-12-18T06:26:30;-4.70;99.90
10453;DHT22;5274;51.992;8.518;2022-12-18T06:28:56;-4.80;99.90
10453;DHT22;5274;51.992;8.518;2022-12-18T06:31:21;-4.80;99.90
10453;DHT22;5274;51.992;8.518;2022-12-18T06:33:47;-4.70;99.90
10453;DHT22;5274;51.992;8.518;2022-12-18T06:36:13;-4.70;99.40
10453;DHT22;5274;51.992;8.518;2022-12-18T06:38:42;-4.70;99.90
10453;DHT22;5274;51.992;8.518;2022-12-18T06:41:09;-4.70;69.10
10453;DHT22;5274;51.992;8.518;2022-12-18T06:43:35;-4.70;1.00
10453;DHT22;5274;51.992;8.518;2022-12-18T06:46:01;-4.70;1.00
10453;DHT22;5274;51.992;8.518;2022-12-18T06:48:27;-4.70;1.00
10453;DHT22;5274;51.992;8.518;2022-12-18T06:50:53;-4.70;1.00
10453;DHT22;5274;51.992;8.518;2022-12-18T06:53:18;-4.70;16.40
10453;DHT22;5274;51.992;8.518;2022-12-18T06:55:44;-4.70;56.80
10453;DHT22;5274;51.992;8.518;2022-12-18T06:58:09;-4.70;11.50
10453;DHT22;5274;51.992;8.518;2022-12-18T07:00:35;-4.60;1.00
10453;DHT22;5274;51.992;8.518;2022-12-18T07:03:00;-4.70;1.00
10453;DHT22;5274;51.992;8.518;2022-12-18T07:05:26;-4.50;1.00
10453;DHT22;5274;51.992;8.518;2022-12-18T07:07:52;-4.50;99.90
10453;DHT22;5274;51.992;8.518;2022-12-18T07:10:17;-4.50;99.90
10453;DHT22;5274;51.992;8.518;2022-12-18T07:12:43;-4.40;99.90
10453;DHT22;5274;51.992;8.518;2022-12-18T07:15:09;-4.40;1.00
10453;DHT22;5274;51.992;8.518;2022-12-18T07:17:34;-4.40;1.00
10453;DHT22;5274;51.992;8.518;2022-12-18T07:20:00;-4.40;1.00
10453;DHT22;5274;51.992;8.518;2022-12-18T07:22:26;-4.40;1.00
10453;DHT22;5274;51.992;8.518;2022-12-18T07:24:52;-4.40;1.00
10453;DHT22;5274;51.992;8.518;2022-12-18T07:27:17;-4.20;99.90
10453;DHT22;5274;51.992;8.518;2022-12-18T07:29:43;-4.30;99.90
10453;DHT22;5274;51.992;8.518;2022-12-18T07:32:08;-4.40;1.00
10453;DHT22;5274;51.992;8.518;2022-12-18T07:34:34;-4.20;99.90
10453;DHT22;5274;51.992;8.518;2022-12-18T07:37:00;-4.20;99.90
10453;DHT22;5274;51.992;8.518;2022-12-18T07:39:25;-4.20;63.10
10453;DHT22;5274;51.992;8.518;2022-12-18T07:41:51;-4.10;1.00
10453;DHT22;5274;51.992;8.518;2022-12-18T07:44:35;-4.20;1.00
10453;DHT22;5274;51.992;8.518;2022-12-18T07:47:01;-4.00;99.90
10453;DHT22;5274;51.992;8.518;2022-12-18T07:49:27;-4.00;99.90
10453;DHT22;5274;51.992;8.518;2022-12-18T07:51:55;-3.90;1.00
10453;DHT22;5274;51.992;8.518;2022-12-18T07:54:21;-4.00;97.40
10453;DHT22;5274;51.992;8.518;2022-12-18T07:56:47;-3.90;1.00
10453;DHT22;5274;51.992;8.518;2022-12-18T07:59:12;-3.90;1.00
10453;DHT22;5274;51.992;8.518;2022-12-18T08:01:38;-3.90;1.00
10453;DHT22;5274;51.992;8.518;2022-12-18T08:04:03;-3.90;1.00
10453;DHT22;5274;51.992;8.518;2022-12-18T08:06:29;-3.90;1.00
10453;DHT22;5274;51.992;8.518;2022-12-18T08:08:56;-3.90;99.90
10453;DHT22;5274;51.992;8.518;2022-12-18T08:11:23;-3.90;1.00
10453;DHT22;5274;51.992;8.518;2022-12-18T08:13:48;-3.80;1.00
10453;DHT22;5274;51.992;8.518;2022-12-18T08:16:14;-3.80;1.00
10453;DHT22;5274;51.992;8.518;2022-12-18T08:18:39;-3.70;1.00
10453;DHT22;5274;51.992;8.518;2022-12-18T08:21:28;-3.70;99.90
10453;DHT22;5274;51.992;8.518;2022-12-18T08:23:58;-3.60;1.00
10453;DHT22;5274;51.992;8.518;2022-12-18T08:26:26;-3.60;1.00
10453;DHT22;5274;51.992;8.518;2022-12-18T08:28:57;-3.50;1.00
10453;DHT22;5274;51.992;8.518;2022-12-18T08:31:24;-3.50;1.00
10453;DHT22;5274;51.992;8.518;2022-12-18T08:33:51;-3.50;95.10
10453;DHT22;5274;51.992;8.518;2022-12-18T08:36:18;-3.40;14.70
10453;DHT22;5274;51.992;8.518;2022-12-18T08:38:45;-3.30;1.00
10453;DHT22;5274;51.992;8.518;2022-12-18T08:41:12;-3.20;1.00
10453;DHT22;5274;51.992;8.518;2022-12-18T08:43:38;-3.20;1.00
10453;DHT22;5274;51.992;8.518;2022-12-18T08:46:24;-3.10;99.90
10453;DHT22;5274;51.992;8.518;2022-12-18T08:48:53;-3.00;99.90
10453;DHT22;5274;51.992;8.518;2022-12-18T08:51:20;-2.90;1.00
10453;DHT22;5274;51.992;8.518;2022-12-18T08:53:46;-2.80;1.00
10453;DHT22;5274;51.992;8.518;2022-12-18T08:56:12;-2.80;1.00
10453;DHT22;5274;51.992;8.518;2022-12-18T08:58:38;-2.70;1.00
10453;DHT22;5274;51.992;8.518;2022-12-18T09:01:05;-2.60;1.00
10453;DHT22;5274;51.992;8.518;2022-12-18T09:03:31;-2.50;1.00
10453;DHT22;5274;51.992;8.518;2022-12-18T09:05:58;-2.50;1.00
10453;DHT22;5274;51.992;8.518;2022-12-18T09:08:25;-2.50;1.00
10453;DHT22;5274;51.992;8.518;2022-12-18T09:10:51;-2.40;99.90
10453;DHT22;5274;51.992;8.518;2022-12-18T09:13:17;-2.30;1.00
10453;DHT22;5274;51.992;8.518;2022-12-18T09:15:45;-2.30;99.90
10453;DHT22;5274;51.992;8.518;2022-12-18T09:18:12;-2.20;99.90
10453;DHT22;5274;51.992;8.518;2022-12-18T09:20:38;-2.20;99.90
10453;DHT22;5274;51.992;8.518;2022-12-18T09:23:04;-2.10;99.90
10453;DHT22;5274;51.992;8.518;2022-12-18T09:25:30;-2.10;99.90
10453;DHT22;5274;51.992;8.518;2022-12-18T09:27:59;-2.00;99.90
10453;DHT22;5274;51.992;8.518;2022-12-18T09:30:25;-2.00;99.90
10453;DHT22;5274;51.992;8.518;2022-12-18T09:32:51;-2.00;55.90
10453;DHT22;5274;51.992;8.518;2022-12-18T09:35:16;-2.00;1.00
10453;DHT22;5274;51.992;8.518;2022-12-18T09:37:42;-2.00;1.00
10453;DHT22;5274;51.992;8.518;2022-12-18T09:40:14;-2.00;1.00
10453;DHT22;5274;51.992;8.518;2022-12-18T09:42:45;-2.00;20.80
10453;DHT22;5274;51.992;8.518;2022-12-18T09:45:14;-2.00;39.70
10453;DHT22;5274;51.992;8.518;2022-12-18T09:47:41;-2.00;99.90
10453;DHT22;5274;51.992;8.518;2022-12-18T09:50:30;-2.00;99.90
10453;DHT22;5274;51.992;8.518;2022-12-18T09:53:02;-2.00;1.00
10453;DHT22;5274;51.992;8.518;2022-12-18T09:55:35;-1.90;1.00
10453;DHT22;5274;51.992;8.518;2022-12-18T09:58:41;-1.90;1.00
10453;DHT22;5274;51.992;8.518;2022-12-18T10:01:18;-1.70;1.00
10453;DHT22;5274;51.992;8.518;2022-12-18T10:03:45;-1.60;1.00
10453;DHT22;5274;51.992;8.518;2022-12-18T10:06:35;-1.50;99.90
10453;DHT22;5274;51.992;8.518;2022-12-18T10:12:02;-1.40;99.90
10453;DHT22;5274;51.992;8.518;2022-12-18T10:14:55;-1.40;99.90
10453;DHT22;5274;51.992;8.518;2022-12-18T10:17:36;-1.40;99.90
10453;DHT22;5274;51.992;8.518;2022-12-18T10:20:24;-1.30;99.90
10453;DHT22;5274;51.992;8.518;2022-12-18T10:23:30;-1.20;99.90
10453;DHT22;5274;51.992;8.518;2022-12-18T10:26:03;-1.10;99.90
10453;DHT22;5274;51.992;8.518;2022-12-18T10:28:31;-0.90;99.90
10453;DHT22;5274;51.992;8.518;2022-12-18T10:30:57;-0.80;99.90
10453;DHT22;5274;51.992;8.518;2022-12-18T10:33:27;-0.70;54.90
10453;DHT22;5274;51.992;8.518;2022-12-18T10:35:54;-0.70;81.10
10453;DHT22;5274;51.992;8.518;2022-12-18T10:38:23;-0.60;38.40
10453;DHT22;5274;51.992;8.518;2022-12-18T10:43:16;-0.40;37.00
10453;DHT22;5274;51.992;8.518;2022-12-18T10:45:58;-0.40;20.30
10453;DHT22;5274;51.992;8.518;2022-12-18T10:48:25;-0.30;7.00
10453;DHT22;5274;51.992;8.518;2022-12-18T10:50:51;-0.30;1.00
10453;DHT22;5274;51.992;8.518;2022-12-18T10:53:24;-0.20;1.00
10453;DHT22;5274;51.992;8.518;2022-12-18T10:55:52;-0.10;1.00
10453;DHT22;5274;51.992;8.518;2022-12-18T11:01:17;0.00;1.00
10453;DHT22;5274;51.992;8.518;2022-12-18T11:03:46;0.10;1.00
10453;DHT22;5274;51.992;8.518;2022-12-18T11:08:41;0.20;1.00
10453;DHT22;5274;51.992;8.518;2022-12-18T11:11:24;0.20;1.00
10453;DHT22;5274;51.992;8.518;2022-12-18T11:14:02;0.40;1.00
10453;DHT22;5274;51.992;8.518;2022-12-18T11:16:30;0.40;1.00
10453;DHT22;5274;51.992;8.518;2022-12-18T11:19:13;0.50;1.00
10453;DHT22;5274;51.992;8.518;2022-12-18T11:21:41;0.60;1.00
10453;DHT22;5274;51.992;8.518;2022-12-18T11:24:26;0.70;1.00
10453;DHT22;5274;51.992;8.518;2022-12-18T11:26:52;0.80;1.00
10453;DHT22;5274;51.992;8.518;2022-12-18T11:29:24;1.00;1.00
10453;DHT22;5274;51.992;8.518;2022-12-18T11:31:52;1.10;1.00
10453;DHT22;5274;51.992;8.518;2022-12-18T11:34:28;1.30;1.00
10453;DHT22;5274;51.992;8.518;2022-12-18T11:36:57;1.70;1.00
10453;DHT22;5274;51.992;8.518;2022-12-18T11:39:38;2.00;1.00
10453;DHT22;5274;51.992;8.518;2022-12-18T11:42:21;2.20;1.00
10453;DHT22;5274;51.992;8.518;2022-12-18T11:48:04;2.10;1.00
10453;DHT22;5274;51.992;8.518;2022-12-18T11:50:49;1.90;1.00
10453;DHT22;5274;51.992;8.518;2022-12-18T11:53:16;1.80;1.00
10453;DHT22;5274;51.992;8.518;2022-12-18T12:19:50;2.00;1.00
10453;DHT22;5274;51.992;8.518;2022-12-18T12:22:33;2.00;1.00
10453;DHT22;5274;51.992;8.518;2022-12-18T12:27:47;1.70;1.00
10453;DHT22;5274;51.992;8.518;2022-12-18T12:31:04;1.70;1.00
10453;DHT22;5274;51.992;8.518;2022-12-18T12:33:38;1.70;1.00
10453;DHT22;5274;51.992;8.518;2022-12-18T12:39:30;1.70;1.00
10453;DHT22;5274;51.992;8.518;2022-12-18T12:41:57;1.60;1.00
10453;DHT22;5274;51.992;8.518;2022-12-18T12:44:50;1.60;10.80
10453;DHT22;5274;51.992;8.518;2022-12-18T12:47:22;1.60;26.70
10453;DHT22;5274;51.992;8.518;2022-12-18T12:49:48;1.70;93.40
10453;DHT22;5274;51.992;8.518;2022-12-18T12:52:20;1.70;44.10
10453;DHT22;5274;51.992;8.518;2022-12-18T12:54:51;1.70;5.70
10453;DHT22;5274;51.992;8.518;2022-12-18T12:57:19;1.70;1.00
10453;DHT22;5274;51.992;8.518;2022-12-18T13:02:37;1.60;1.00
10453;DHT22;5274;51.992;8.518;2022-12-18T13:05:16;1.50;1.00
10453;DHT22;5274;51.992;8.518;2022-12-18T13:16:05;1.50;1.00
10453;DHT22;5274;51.992;8.518;2022-12-18T13:18:32;1.50;1.00
10453;DHT22;5274;51.992;8.518;2022-12-18T13:31:14;1.30;1.00
10453;DHT22;5274;51.992;8.518;2022-12-18T13:33:44;1.30;1.00
10453;DHT22;5274;51.992;8.518;2022-12-18T13:36:26;1.30;1.00
10453;DHT22;5274;51.992;8.518;2022-12-18T13:41:36;1.30;1.00
10453;DHT22;5274;51.992;8.518;2022-12-18T13:44:32;1.30;1.00
10453;DHT22;5274;51.992;8.518;2022-12-18T13:46:59;1.30;1.00
10453;DHT22;5274;51.992;8.518;2022-12-18T13:52:00;1.20;1.00
10453;DHT22;5274;51.992;8.518;2022-12-18T13:54:34;1.20;1.00
10453;DHT22;5274;51.992;8.518;2022-12-18T13:57:00;1.30;1.00
10453;DHT22;5274;51.992;8.518;2022-12-18T13:59:37;1.20;1.00
10453;DHT22;5274;51.992;8.518;2022-12-18T14:02:13;1.20;1.00
10453;DHT22;5274;51.992;8.518;2022-12-18T14:04:39;1.10;1.00
10453;DHT22;5274;51.992;8.518;2022-12-18T14:07:09;1.00;1.00
10453;DHT22;5274;51.992;8.518;2022-12-18T14:09:42;1.00;1.00
10453;DHT22;5274;51.992;8.518;2022-12-18T14:12:17;1.00;1.00
10453;DHT22;5274;51.992;8.518;2022-12-18T14:15:03;1.00;1.00
10453;DHT22;5274;51.992;8.518;2022-12-18T14:17:31;1.00;1.00
10453;DHT22;5274;51.992;8.518;2022-12-18T14:19:57;1.00;1.00
10453;DHT22;5274;51.992;8.518;2022-12-18T14:22:24;1.00;1.00
10453;DHT22;5274;51.992;8.518;2022-12-18T14:25:14;0.90;1.00
10453;DHT22;5274;51.992;8.518;2022-12-18T14:27:50;0.90;1.00
10453;DHT22;5274;51.992;8.518;2022-12-18T14:30:26;0.90;1.00
10453;DHT22;5274;51.992;8.518;2022-12-18T14:35:38;0.80;1.00
10453;DHT22;5274;51.992;8.518;2022-12-18T14:40:42;0.80;1.00
10453;DHT22;5274;51.992;8.518;2022-12-18T14:43:11;0.70;1.00
10453;DHT22;5274;51.992;8.518;2022-12-18T14:45:44;0.70;1.00
10453;DHT22;5274;51.992;8.518;2022-12-18T14:48:25;0.70;1.00
10453;DHT22;5274;51.992;8.518;2022-12-18T14:51:15;0.60;1.00
10453;DHT22;5274;51.992;8.518;2022-12-18T14:53:47;0.60;1.00
10453;DHT22;5274;51.992;8.518;2022-12-18T14:56:21;0.60;1.00
10453;DHT22;5274;51.992;8.518;2022-12-18T14:58:49;0.50;1.00
10453;DHT22;5274;51.992;8.518;2022-12-18T15:01:27;0.40;1.00
10453;DHT22;5274;51.992;8.518;2022-12-18T15:03:54;0.40;1.00
10453;DHT22;5274;51.992;8.518;2022-12-18T15:06:30;0.40;1.00
10453;DHT22;5274;51.992;8.518;2022-12-18T15:08:56;0.40;1.00
10453;DHT22;5274;51.992;8.518;2022-12-18T15:14:41;0.30;1.00
10453;DHT22;5274;51.992;8.518;2022-12-18T15:17:23;0.30;1.00
10453;DHT22;5274;51.992;8.518;2022-12-18T15:19:52;0.30;1.00
10453;DHT22;5274;51.992;8.518;2022-12-18T15:22:26;0.30;1.00
10453;DHT22;5274;51.992;8.518;2022-12-18T15:24:53;0.30;1.00
10453;DHT22;5274;51.992;8.518;2022-12-18T15:30:00;0.20;1.00
10453;DHT22;5274;51.992;8.518;2022-12-18T15:32:26;0.10;1.00
10453;DHT22;5274;51.992;8.518;2022-12-18T15:37:37;0.10;1.00
10453;DHT22;5274;51.992;8.518;2022-12-18T15:40:03;0.10;1.00
10453;DHT22;5274;51.992;8.518;2022-12-18T15:42:29;0.10;1.00
10453;DHT22;5274;51.992;8.518;2022-12-18T15:45:14;0.10;1.00
10453;DHT22;5274;51.992;8.518;2022-12-18T15:47:40;0.00;1.00
10453;DHT22;5274;51.992;8.518;2022-12-18T15:50:07;0.00;1.00
10453;DHT22;5274;51.992;8.518;2022-12-18T15:52:39;0.00;1.00
10453;DHT22;5274;51.992;8.518;2022-12-18T15:55:14;-0.10;1.00
10453;DHT22;5274;51.992;8.518;2022-12-18T15:57:58;0.00;1.00
10453;DHT22;5274;51.992;8.518;2022-12-18T16:00:24;0.00;1.00
10453;DHT22;5274;51.992;8.518;2022-12-18T16:02:49;-0.10;1.00
10453;DHT22;5274;51.992;8.518;2022-12-18T16:05:17;-0.10;1.00
10453;DHT22;5274;51.992;8.518;2022-12-18T16:07:43;-0.10;1.00
10453;DHT22;5274;51.992;8.518;2022-12-18T16:10:10;-0.10;1.00
10453;DHT22;5274;51.992;8.518;2022-12-18T16:12:35;-0.10;1.00
10453;DHT22;5274;51.992;8.518;2022-12-18T16:15:02;-0.20;1.00
10453;DHT22;5274;51.992;8.518;2022-12-18T16:17:28;-0.10;1.00
10453;DHT22;5274;51.992;8.518;2022-12-18T16:19:53;-0.10;1.00
10453;DHT22;5274;51.992;8.518;2022-12-18T16:22:24;-0.10;1.00
10453;DHT22;5274;51.992;8.518;2022-12-18T16:24:51;-0.10;1.00
10453;DHT22;5274;51.992;8.518;2022-12-18T16:27:18;-0.10;1.00
10453;DHT22;5274;51.992;8.518;2022-12-18T16:29:43;-0.10;1.00
10453;DHT22;5274;51.992;8.518;2022-12-18T16:32:13;-0.20;1.00
10453;DHT22;5274;51.992;8.518;2022-12-18T16:34:39;-0.20;1.00
10453;DHT22;5274;51.992;8.518;2022-12-18T16:37:06;-0.20;1.00
10453;DHT22;5274;51.992;8.518;2022-12-18T16:39:36;-0.20;1.00
10453;DHT22;5274;51.992;8.518;2022-12-18T16:42:03;-0.20;30.40
10453;DHT22;5274;51.992;8.518;2022-12-18T16:44:29;-0.20;24.70
10453;DHT22;5274;51.992;8.518;2022-12-18T16:46:55;-0.20;1.00
10453;DHT22;5274;51.992;8.518;2022-12-18T16:49:27;-0.20;1.00
10453;DHT22;5274;51.992;8.518;2022-12-18T16:51:53;-0.20;1.00
10453;DHT22;5274;51.992;8.518;2022-12-18T16:54:19;-0.20;1.00
10453;DHT22;5274;51.992;8.518;2022-12-18T16:56:44;-0.20;1.00
10453;DHT22;5274;51.992;8.518;2022-12-18T16:59:14;-0.20;1.00
10453;DHT22;5274;51.992;8.518;2022-12-18T17:01:40;-0.10;1.00
10453;DHT22;5274;51.992;8.518;2022-12-18T17:04:06;-0.10;1.00
10453;DHT22;5274;51.992;8.518;2022-12-18T17:06:34;-0.10;1.00
10453;DHT22;5274;51.992;8.518;2022-12-18T17:09:03;-0.10;1.00
10453;DHT22;5274;51.992;8.518;2022-12-18T17:11:31;-0.10;1.00
10453;DHT22;5274;51.992;8.518;2022-12-18T17:13:57;0.00;1.00
10453;DHT22;5274;51.992;8.518;2022-12-18T17:16:23;0.00;1.00
10453;DHT22;5274;51.992;8.518;2022-12-18T17:18:50;-0.10;1.00
10453;DHT22;5274;51.992;8.518;2022-12-18T17:21:16;0.00;1.00
10453;DHT22;5274;51.992;8.518;2022-12-18T17:23:43;0.00;1.00
10453;DHT22;5274;51.992;8.518;2022-12-18T17:26:09;0.00;1.00
10453;DHT22;5274;51.992;8.518;2022-12-18T17:28:35;0.00;1.00
10453;DHT22;5274;51.992;8.518;2022-12-18T17:31:06;0.00;1.00
10453;DHT22;5274;51.992;8.518;2022-12-18T17:33:34;0.00;1.00
10453;DHT22;5274;51.992;8.518;2022-12-18T17:35:59;0.00;1.00
10453;DHT22;5274;51.992;8.518;2022-12-18T17:38:25;0.00;1.00
10453;DHT22;5274;51.992;8.518;2022-12-18T17:40:50;0.00;1.00
10453;DHT22;5274;51.992;8.518;2022-12-18T17:43:16;0.00;1.00
10453;DHT22;5274;51.992;8.518;2022-12-18T17:45:41;0.10;1.00
10453;DHT22;5274;51.992;8.518;2022-12-18T17:48:08;0.00;1.00
10453;DHT22;5274;51.992;8.518;2022-12-18T17:50:34;0.00;1.00
10453;DHT22;5274;51.992;8.518;2022-12-18T17:53:00;0.00;1.00
10453;DHT22;5274;51.992;8.518;2022-12-18T17:55:26;0.00;1.00
10453;DHT22;5274;51.992;8.518;2022-12-18T17:57:52;0.00;1.00
10453;DHT22;5274;51.992;8.518;2022-12-18T18:00:18;0.00;1.00
10453;DHT22;5274;51.992;8.518;2022-12-18T18:02:44;0.00;1.00
10453;DHT22;5274;51.992;8.518;2022-12-18T18:05:10;0.00;1.00
10453;DHT22;5274;51.992;8.518;2022-12-18T18:07:37;-0.10;1.00